createdAt,value
2022-11-06T00:01:43.273Z,33.55
2022-11-06T00:04:10.553Z,34.13
2022-11-06T00:06:55.152Z,32.40
2022-11-06T00:09:22.275Z,31.85
2022-11-06T00:11:52.545Z,32.97
2022-11-06T00:14:24.355Z,34.80
2022-11-06T00:16:54.059Z,31.55
2022-11-06T00:19:24.412Z,34.30
2022-11-06T00:21:52.810Z,33.47
2022-11-06T00:24:23.600Z,34.15
2022-11-06T00:26:54.701Z,32.10
2022-11-06T00:29:27.043Z,32.03
2022-11-06T00:31:58.162Z,29.75
2022-11-06T00:34:25.614Z,31.10
2022-11-06T00:36:55.262Z,29.95
2022-11-06T00:39:22.604Z,29.30
2022-11-06T00:41:53.250Z,29.88
2022-11-06T00:44:25.578Z,28.60
2022-11-06T00:46:55.915Z,27.48
2022-11-06T00:49:26.779Z,27.83
2022-11-06T00:51:54.697Z,25.40
2022-11-06T00:54:25.068Z,27.55
2022-11-06T00:56:56.181Z,25.58
2022-11-06T00:59:27.386Z,26.70
2022-11-06T01:01:59.513Z,25.60
2022-11-06T01:04:30.356Z,26.55
2022-11-06T01:07:01.182Z,27.70
2022-11-06T01:09:31.588Z,26.25
2022-11-06T01:12:18.703Z,27.20
2022-11-06T01:14:48.263Z,28.92
2022-11-06T01:17:19.401Z,27.42
2022-11-06T01:19:49.185Z,27.52
2022-11-06T01:22:19.308Z,28.10
2022-11-06T01:24:48.796Z,28.13
2022-11-06T01:27:31.845Z,27.73
2022-11-06T01:30:02.803Z,27.35
2022-11-06T01:32:30.660Z,27.70
2022-11-06T01:35:01.376Z,29.52
2022-11-06T01:37:31.813Z,27.15
2022-11-06T01:40:02.306Z,27.98
2022-11-06T01:42:30.676Z,27.58
2022-11-06T01:45:24.102Z,29.13
2022-11-06T01:47:53.943Z,29.55
2022-11-06T01:50:23.016Z,29.27
2022-11-06T01:52:55.268Z,28.38
2022-11-06T01:55:33.126Z,27.55
2022-11-06T01:58:05.152Z,29.13
2022-11-06T02:00:35.162Z,28.83
2022-11-06T02:03:08.826Z,30.27
2022-11-06T02:05:38.747Z,27.45
2022-11-06T02:08:10.270Z,29.25
2022-11-06T02:10:39.910Z,27.92
2022-11-06T02:13:36.475Z,29.23
2022-11-06T02:16:23.258Z,28.17
2022-11-06T02:19:21.409Z,27.38
2022-11-06T02:22:32.200Z,31.50
2022-11-06T02:25:49.770Z,29.65
2022-11-06T02:28:42.433Z,29.35
2022-11-06T02:31:32.567Z,31.20
2022-11-06T02:34:19.880Z,29.95
2022-11-06T02:37:15.498Z,31.77
2022-11-06T02:39:47.548Z,30.90
2022-11-06T02:42:23.504Z,31.55
2022-11-06T02:44:59.183Z,30.05
2022-11-06T02:47:40.351Z,30.08
2022-11-06T02:50:25.838Z,32.05
2022-11-06T02:53:06.638Z,29.52
2022-11-06T02:55:51.559Z,31.85
2022-11-06T03:01:28.340Z,31.15
2022-11-06T03:04:11.501Z,30.48
2022-11-06T03:06:55.904Z,28.80
2022-11-06T03:09:29.414Z,30.88
2022-11-06T03:12:44.580Z,31.63
2022-11-06T03:15:51.765Z,32.65
2022-11-06T03:18:30.703Z,33.63
2022-11-06T03:21:19.965Z,33.22
2022-11-06T03:23:56.859Z,32.17
2022-11-06T03:26:39.864Z,30.75
2022-11-06T03:29:24.479Z,30.80
2022-11-06T03:32:16.817Z,31.65
2022-11-06T03:34:55.251Z,30.90
2022-11-06T03:37:39.394Z,30.92
2022-11-06T03:40:14.550Z,34.15
2022-11-06T03:42:44.943Z,30.90
2022-11-06T03:45:26.651Z,31.48
2022-11-06T03:48:21.215Z,30.30
2022-11-06T03:51:00.541Z,31.70
2022-11-06T03:53:34.538Z,30.23
2022-11-06T03:56:32.760Z,29.83
2022-11-06T03:59:08.435Z,29.77
2022-11-06T04:01:44.891Z,29.35
2022-11-06T04:04:19.953Z,29.60
2022-11-06T04:07:09.760Z,30.35
2022-11-06T04:10:01.260Z,30.25
2022-11-06T04:12:54.804Z,32.03
2022-11-06T04:15:26.002Z,31.20
2022-11-06T04:17:56.191Z,31.08
2022-11-06T04:20:53.663Z,29.60
2022-11-06T04:23:53.102Z,30.13
2022-11-06T04:26:39.650Z,30.55
2022-11-06T04:29:42.406Z,29.50
2022-11-06T04:32:25.982Z,29.00
2022-11-06T04:35:17.860Z,28.65
2022-11-06T04:38:24.417Z,26.88
2022-11-06T04:41:13.610Z,27.42
2022-11-06T04:44:18.804Z,28.45
2022-11-06T04:46:55.043Z,27.50
2022-11-06T04:49:25.542Z,27.90
2022-11-06T04:51:56.183Z,26.58
2022-11-06T04:54:24.616Z,26.17
2022-11-06T04:57:00.593Z,27.75
2022-11-06T04:59:29.703Z,28.75
2022-11-06T05:01:57.115Z,28.67
2022-11-06T05:04:29.219Z,26.85
2022-11-06T05:06:56.932Z,27.48
2022-11-06T05:09:28.169Z,28.08
2022-11-06T05:11:59.039Z,27.60
2022-11-06T05:14:26.173Z,27.85
2022-11-06T05:16:54.901Z,29.75
2022-11-06T05:19:29.371Z,30.27
2022-11-06T05:22:21.066Z,27.92
2022-11-06T05:24:50.680Z,29.60
2022-11-06T05:27:18.521Z,30.05
2022-11-06T05:29:51.042Z,30.17
2022-11-06T05:32:20.824Z,27.75
2022-11-06T05:34:52.651Z,29.45
2022-11-06T05:37:20.188Z,30.05
2022-11-06T05:39:48.910Z,30.35
2022-11-06T05:42:18.506Z,28.50
2022-11-06T05:44:47.954Z,29.30
2022-11-06T05:47:18.518Z,28.23
2022-11-06T05:49:48.196Z,28.27
2022-11-06T05:52:17.241Z,29.70
2022-11-06T05:54:44.279Z,29.30
2022-11-06T05:57:11.545Z,28.83
2022-11-06T05:59:41.464Z,27.75
2022-11-06T06:02:10.705Z,27.27
2022-11-06T06:04:40.495Z,26.05
2022-11-06T06:07:10.618Z,28.35
2022-11-06T06:09:38.363Z,27.40
2022-11-06T06:12:06.564Z,26.30
2022-11-06T06:14:36.006Z,28.30
2022-11-06T06:17:06.519Z,28.08
2022-11-06T06:19:34.568Z,27.95
2022-11-06T06:22:02.012Z,28.58
2022-11-06T06:24:32.103Z,27.20
2022-11-06T06:27:01.798Z,28.17
2022-11-06T06:29:29.255Z,26.65
2022-11-06T06:31:58.154Z,27.88
2022-11-06T06:34:29.361Z,25.48
2022-11-06T06:36:57.340Z,27.00
2022-11-06T06:39:26.083Z,29.63
2022-11-06T06:41:57.787Z,29.60
2022-11-06T06:44:30.519Z,29.95
2022-11-06T06:47:00.656Z,28.63
2022-11-06T06:49:29.985Z,29.45
2022-11-06T06:51:58.046Z,32.25
2022-11-06T06:54:28.512Z,31.80
2022-11-06T06:56:57.826Z,30.40
2022-11-06T06:59:27.673Z,31.88
2022-11-06T07:01:57.757Z,32.10
2022-11-06T07:04:26.466Z,30.55
2022-11-06T07:06:55.754Z,31.83
2022-11-06T07:09:25.595Z,31.60
2022-11-06T07:11:55.554Z,32.90
2022-11-06T07:14:26.246Z,34.03
2022-11-06T07:16:58.395Z,35.97
2022-11-06T07:19:29.445Z,31.92
2022-11-06T07:21:58.255Z,34.13
2022-11-06T07:24:29.450Z,30.55
2022-11-06T07:26:57.024Z,31.15
2022-11-06T07:29:25.071Z,32.20
2022-11-06T07:31:53.027Z,31.05
2022-11-06T07:34:25.664Z,30.55
2022-11-06T07:36:55.562Z,28.33
2022-11-06T07:39:24.374Z,28.25
2022-11-06T07:41:55.199Z,31.65
2022-11-06T07:44:25.694Z,30.60
2022-11-06T07:46:55.637Z,29.77
2022-11-06T07:49:26.765Z,31.00
2022-11-06T07:51:54.458Z,29.75
2022-11-06T07:54:24.001Z,32.05
2022-11-06T07:56:55.572Z,30.30
2022-11-06T07:59:24.393Z,31.42
2022-11-06T08:01:56.951Z,31.90
2022-11-06T08:04:27.605Z,31.33
2022-11-06T08:07:00.806Z,33.88
2022-11-06T08:09:29.034Z,25.83
2022-11-06T08:11:57.138Z,32.88
2022-11-06T08:14:26.308Z,34.08
2022-11-06T08:16:56.571Z,33.45
2022-11-06T08:19:30.390Z,33.88
2022-11-06T08:21:58.126Z,32.53
2022-11-06T08:24:29.588Z,32.45
2022-11-06T08:26:59.007Z,32.17
2022-11-06T08:29:29.483Z,31.10
2022-11-06T08:31:59.383Z,32.35
2022-11-06T08:34:29.433Z,30.77
2022-11-06T08:36:58.135Z,30.65
2022-11-06T08:39:28.712Z,29.85
2022-11-06T08:41:58.407Z,32.95
2022-11-06T08:44:30.647Z,32.80
2022-11-06T08:46:58.297Z,30.92
2022-11-06T08:49:26.476Z,30.08
2022-11-06T08:51:54.757Z,30.83
2022-11-06T08:54:24.378Z,32.78
2022-11-06T08:56:52.259Z,33.80
2022-11-06T08:59:22.660Z,32.85
2022-11-06T09:01:52.668Z,34.80
2022-11-06T09:04:24.548Z,34.72
2022-11-06T09:06:54.864Z,34.72
2022-11-06T09:09:31.899Z,36.55
2022-11-06T09:12:06.650Z,34.85
2022-11-06T09:14:37.538Z,37.73
2022-11-06T09:17:06.221Z,37.28
2022-11-06T09:19:34.182Z,33.50
2022-11-06T09:22:07.280Z,32.92
2022-11-06T09:25:02.093Z,33.72
2022-11-06T09:27:28.631Z,33.40
2022-11-06T09:29:58.719Z,34.95
2022-11-06T09:32:28.589Z,31.70
2022-11-06T09:35:00.335Z,38.53
2022-11-06T09:37:29.472Z,36.45
2022-11-06T09:40:05.695Z,37.80
2022-11-06T09:43:58.293Z,37.35
2022-11-06T09:46:18.199Z,37.67
2022-11-06T09:49:14.599Z,35.45
2022-11-06T09:52:09.503Z,35.40
2022-11-06T09:57:29.916Z,39.70
2022-11-06T10:00:02.658Z,40.05
2022-11-06T10:03:20.203Z,40.42
2022-11-06T10:05:52.640Z,41.67
2022-11-06T10:08:29.683Z,41.67
2022-11-06T10:11:18.006Z,40.70
2022-11-06T10:14:01.366Z,42.22
2022-11-06T10:17:14.034Z,42.13
2022-11-06T10:20:27.166Z,40.65
2022-11-06T10:23:29.297Z,43.63
2022-11-06T10:26:39.215Z,45.35
2022-11-06T10:29:47.479Z,41.55
2022-11-06T10:32:38.621Z,40.85
2022-11-06T10:35:26.146Z,42.28
2022-11-06T10:38:13.417Z,42.15
2022-11-06T10:40:45.606Z,42.67
2022-11-06T10:43:38.946Z,44.42
2022-11-06T10:46:39.912Z,41.90
2022-11-06T10:49:47.040Z,44.17
2022-11-06T10:52:58.769Z,39.97
2022-11-06T10:55:56.324Z,40.53
2022-11-06T10:58:34.695Z,41.38
2022-11-06T11:03:55.121Z,44.15
2022-11-06T11:06:26.619Z,41.67
2022-11-06T11:08:56.049Z,41.05
2022-11-06T11:11:29.831Z,44.03
2022-11-06T11:13:59.512Z,41.23
2022-11-06T11:16:40.807Z,43.83
2022-11-06T11:19:41.187Z,45.53
2022-11-06T11:22:33.325Z,43.60
2022-11-06T11:25:27.367Z,43.35
2022-11-06T11:27:59.664Z,44.90
2022-11-06T11:30:32.732Z,46.17
2022-11-06T11:33:16.843Z,42.92
2022-11-06T11:35:49.712Z,40.15
2022-11-06T11:38:22.053Z,43.67
2022-11-06T11:40:52.608Z,43.03
2022-11-06T11:43:31.164Z,42.60
2022-11-06T11:46:11.201Z,42.00
2022-11-06T11:48:58.389Z,40.88
2022-11-06T11:51:43.445Z,42.20
2022-11-06T11:54:26.251Z,32.97
2022-11-06T11:57:07.102Z,45.93
2022-11-06T11:59:49.271Z,44.35
2022-11-06T12:02:31.614Z,43.38
2022-11-06T12:05:17.248Z,43.38
2022-11-06T12:07:52.294Z,40.08
2022-11-06T12:10:44.735Z,39.83
2022-11-06T12:13:28.028Z,46.47
2022-11-06T12:16:04.985Z,42.00
2022-11-06T12:18:41.210Z,41.47
2022-11-06T12:21:31.782Z,45.20
2022-11-06T12:24:10.386Z,46.20
2022-11-06T12:27:00.284Z,43.50
2022-11-06T12:30:01.669Z,45.28
2022-11-06T12:33:52.053Z,46.03
2022-11-06T12:36:16.774Z,48.92
2022-11-06T12:39:15.749Z,46.28
2022-11-06T12:41:52.923Z,45.30
2022-11-06T12:44:29.084Z,45.55
2022-11-06T12:47:02.439Z,42.42
2022-11-06T12:50:00.363Z,43.03
2022-11-06T12:52:49.142Z,42.28
2022-11-06T12:56:05.756Z,41.15
2022-11-06T12:59:09.112Z,44.13
2022-11-06T13:02:09.361Z,43.83
2022-11-06T13:05:11.111Z,43.90
2022-11-06T13:08:22.259Z,43.85
2022-11-06T13:11:11.371Z,44.45
2022-11-06T13:14:23.248Z,45.15
2022-11-06T13:17:12.201Z,46.33
2022-11-06T13:20:02.513Z,45.05
2022-11-06T13:22:50.210Z,42.88
2022-11-06T13:25:49.317Z,43.30
2022-11-06T13:28:59.283Z,43.70
2022-11-06T13:32:00.816Z,42.70
2022-11-06T13:34:53.401Z,44.17
2022-11-06T13:37:37.921Z,42.50
2022-11-06T13:40:28.180Z,45.80
2022-11-06T13:43:20.818Z,45.70
2022-11-06T13:46:07.035Z,45.63
2022-11-06T13:49:15.986Z,43.03
2022-11-06T13:51:46.460Z,43.75
2022-11-06T13:54:25.880Z,45.00
2022-11-06T13:57:50.245Z,44.83
2022-11-06T14:00:46.630Z,44.72
2022-11-06T14:03:26.057Z,47.17
2022-11-06T14:06:29.060Z,44.95
2022-11-06T14:09:09.951Z,44.45
2022-11-06T14:11:42.822Z,43.17
2022-11-06T14:14:20.426Z,43.75
2022-11-06T14:17:12.743Z,43.45
2022-11-06T14:20:03.946Z,42.25
2022-11-06T14:22:40.549Z,42.85
2022-11-06T14:25:42.592Z,44.97
2022-11-06T14:28:09.811Z,44.50
2022-11-06T14:34:02.104Z,42.45
2022-11-06T14:36:53.709Z,45.47
2022-11-06T14:40:08.114Z,39.97
2022-11-06T14:42:40.543Z,41.00
2022-11-06T14:45:27.829Z,40.55
2022-11-06T14:47:57.336Z,38.10
2022-11-06T14:50:41.040Z,36.08
2022-11-06T14:53:48.688Z,38.08
2022-11-06T14:56:42.479Z,41.20
2022-11-06T14:59:31.511Z,41.65
2022-11-06T15:02:25.207Z,38.95
2022-11-06T15:05:21.963Z,37.20
2022-11-06T15:08:05.917Z,34.20
2022-11-06T15:10:45.885Z,26.60
2022-11-06T15:13:29.951Z,28.80
2022-11-06T15:16:15.693Z,31.83
2022-11-06T15:18:49.012Z,29.38
2022-11-06T15:21:27.218Z,27.27
2022-11-06T15:24:24.797Z,27.15
2022-11-06T15:26:57.579Z,27.02
2022-11-06T15:29:31.135Z,26.65
2022-11-06T15:32:26.596Z,32.05
2022-11-06T15:35:13.265Z,31.73
2022-11-06T15:38:03.681Z,29.27
2022-11-06T15:40:38.443Z,26.58
2022-11-06T15:43:30.212Z,26.50
2022-11-06T15:46:18.270Z,27.77
2022-11-06T15:48:47.542Z,28.00
2022-11-06T15:51:29.179Z,26.55
2022-11-06T15:53:58.660Z,25.95
2022-11-06T15:56:41.652Z,27.08
2022-11-06T15:59:24.555Z,29.05
2022-11-06T16:01:56.164Z,25.77
2022-11-06T16:04:25.926Z,31.55
2022-11-06T16:06:55.646Z,28.20
2022-11-06T16:09:26.629Z,23.80
2022-11-06T16:11:57.589Z,25.80
2022-11-06T16:14:25.641Z,25.52
2022-11-06T16:16:57.627Z,25.95
2022-11-06T16:19:38.930Z,21.00
2022-11-06T16:22:20.567Z,19.92
2022-11-06T16:25:06.903Z,21.02
2022-11-06T16:27:42.357Z,18.80
2022-11-06T16:30:25.650Z,21.65
2022-11-06T16:32:55.927Z,19.63
2022-11-06T16:35:39.175Z,19.23
2022-11-06T16:38:44.491Z,16.73
2022-11-06T16:41:39.849Z,16.08
2022-11-06T16:44:32.035Z,18.58
2022-11-06T16:47:23.548Z,17.65
2022-11-06T16:50:09.342Z,19.13
2022-11-06T16:52:42.694Z,16.95
2022-11-06T16:55:31.454Z,16.77
2022-11-06T16:58:06.467Z,18.27
2022-11-06T17:00:36.744Z,18.35
2022-11-06T17:03:08.798Z,21.10
2022-11-06T17:05:39.450Z,26.00
2022-11-06T17:08:23.281Z,24.73
2022-11-06T17:10:54.156Z,18.88
2022-11-06T17:13:35.429Z,23.88
2022-11-06T17:16:09.470Z,24.48
2022-11-06T17:18:43.557Z,26.13
2022-11-06T17:21:18.128Z,25.30
2022-11-06T17:23:46.391Z,26.48
2022-11-06T17:26:36.671Z,25.50
2022-11-06T17:29:06.362Z,29.15
2022-11-06T17:31:34.247Z,28.15
2022-11-06T17:34:11.970Z,28.63
2022-11-06T17:36:39.901Z,28.50
2022-11-06T17:39:11.240Z,27.65
2022-11-06T17:41:40.512Z,26.70
2022-11-06T17:44:11.366Z,29.70
2022-11-06T17:47:00.587Z,31.95
2022-11-06T17:49:27.679Z,33.40
2022-11-06T17:52:03.591Z,34.47
2022-11-06T17:54:39.100Z,35.33
2022-11-06T17:57:09.980Z,33.30
2022-11-06T17:59:40.163Z,33.67
2022-11-06T18:04:57.843Z,35.00
2022-11-06T18:07:31.155Z,34.92
2022-11-06T18:10:01.456Z,37.92
2022-11-06T18:12:31.917Z,36.03
2022-11-06T18:15:00.667Z,34.28
2022-11-06T18:17:33.244Z,34.03
2022-11-06T18:20:00.678Z,34.00
2022-11-06T18:22:32.446Z,34.08
2022-11-06T18:25:00.610Z,35.83
2022-11-06T18:27:31.952Z,33.88
2022-11-06T18:29:59.413Z,39.33
2022-11-06T18:32:28.297Z,37.72
2022-11-06T18:34:55.737Z,38.92
2022-11-06T18:37:26.447Z,37.28
2022-11-06T18:39:56.260Z,37.17
2022-11-06T18:42:24.947Z,34.50
2022-11-06T18:44:56.372Z,34.28
2022-11-06T18:47:27.416Z,34.20
2022-11-06T18:49:55.759Z,32.03
2022-11-06T18:52:51.668Z,31.98
2022-11-06T18:55:16.901Z,37.92
2022-11-06T18:57:44.692Z,49.30
2022-11-06T19:00:15.129Z,32.30
2022-11-06T19:02:44.451Z,33.53
2022-11-06T19:05:18.269Z,33.08
2022-11-06T19:07:51.986Z,32.13
2022-11-06T19:10:22.737Z,36.97
2022-11-06T19:12:51.071Z,42.60
2022-11-06T19:15:25.266Z,41.30
2022-11-06T19:17:55.567Z,44.25
2022-11-06T19:20:25.918Z,42.05
2022-11-06T19:22:55.892Z,42.22
2022-11-06T19:25:24.677Z,40.97
2022-11-06T19:27:55.890Z,33.33
2022-11-06T19:30:26.114Z,34.63
2022-11-06T19:32:56.064Z,33.92
2022-11-06T19:35:28.366Z,33.35
2022-11-06T19:37:58.259Z,35.67
2022-11-06T19:40:27.597Z,36.90
2022-11-06T19:42:59.799Z,34.80
2022-11-06T19:45:29.368Z,41.08
2022-11-06T19:48:01.223Z,38.33
2022-11-06T19:50:58.280Z,38.08
2022-11-06T19:53:22.020Z,39.70
2022-11-06T19:55:51.057Z,38.17
2022-11-06T19:58:23.982Z,39.90
2022-11-06T20:00:54.572Z,38.67
2022-11-06T20:03:25.196Z,37.67
2022-11-06T20:06:01.259Z,39.70
2022-11-06T20:08:39.441Z,37.45
2022-11-06T20:11:15.265Z,38.10
2022-11-06T20:13:46.355Z,38.22
2022-11-06T20:16:22.429Z,37.83
2022-11-06T20:18:56.647Z,39.10
2022-11-06T20:21:30.852Z,36.45
2022-11-06T20:24:00.859Z,28.73
2022-11-06T20:26:30.218Z,37.50
2022-11-06T20:29:00.371Z,38.22
2022-11-06T20:31:30.346Z,36.25
2022-11-06T20:34:00.011Z,34.70
2022-11-06T20:36:31.199Z,35.95
2022-11-06T20:39:02.874Z,37.78
2022-11-06T20:41:33.411Z,39.05
2022-11-06T20:44:03.354Z,37.95
2022-11-06T20:46:31.832Z,33.45
2022-11-06T20:49:02.547Z,34.97
2022-11-06T20:51:59.932Z,31.08
2022-11-06T20:54:29.000Z,31.05
2022-11-06T20:56:59.647Z,30.52
2022-11-06T20:59:31.670Z,30.95
2022-11-06T21:02:02.795Z,32.15
2022-11-06T21:04:31.287Z,31.67
2022-11-06T21:07:02.412Z,32.15
2022-11-06T21:09:29.958Z,30.98
2022-11-06T21:12:00.094Z,32.53
2022-11-06T21:14:33.189Z,29.80
2022-11-06T21:17:05.583Z,31.23
2022-11-06T21:19:38.955Z,29.50
2022-11-06T21:22:09.577Z,28.85
2022-11-06T21:24:41.009Z,33.40
2022-11-06T21:27:11.589Z,31.27
2022-11-06T21:29:43.897Z,31.13
2022-11-06T21:32:14.548Z,32.75
2022-11-06T21:34:45.443Z,34.88
2022-11-06T21:37:14.368Z,32.38
2022-11-06T21:39:41.549Z,32.58
2022-11-06T21:42:12.082Z,34.28
2022-11-06T21:44:44.267Z,35.95
2022-11-06T21:47:14.843Z,33.75
2022-11-06T21:49:56.436Z,36.42
2022-11-06T21:52:43.525Z,37.58
2022-11-06T21:55:30.297Z,38.72
2022-11-06T21:57:57.416Z,39.05
2022-11-06T22:00:26.198Z,42.20
2022-11-06T22:02:53.448Z,40.58
2022-11-06T22:05:25.162Z,42.33
2022-11-06T22:07:56.220Z,42.97
2022-11-06T22:10:30.594Z,44.20
2022-11-06T22:13:00.812Z,43.45
2022-11-06T22:15:30.102Z,42.53
2022-11-06T22:18:02.839Z,44.97
2022-11-06T22:20:33.980Z,44.75
2022-11-06T22:23:20.135Z,43.78
2022-11-06T22:25:51.059Z,47.92
2022-11-06T22:28:21.490Z,49.33
2022-11-06T22:30:52.221Z,46.50
2022-11-06T22:33:20.691Z,48.92
2022-11-06T22:35:50.525Z,51.72
2022-11-06T22:38:20.836Z,48.20
2022-11-06T22:41:02.638Z,50.67
2022-11-06T22:43:33.017Z,50.20
2022-11-06T22:46:07.122Z,50.60
2022-11-06T22:48:39.486Z,50.47
2022-11-06T22:51:13.055Z,52.70
2022-11-06T22:53:44.899Z,51.30
2022-11-06T22:56:14.374Z,49.25
2022-11-06T22:58:48.998Z,48.13
2022-11-06T23:03:51.994Z,48.10
2022-11-06T23:06:20.573Z,53.50
2022-11-06T23:08:48.339Z,46.58
2022-11-06T23:11:18.004Z,46.83
2022-11-06T23:13:46.308Z,47.72
2022-11-06T23:16:43.460Z,48.88
2022-11-06T23:19:14.097Z,44.42
2022-11-06T23:21:45.783Z,48.92
2022-11-06T23:24:16.450Z,48.25
2022-11-06T23:26:47.139Z,49.08
2022-11-06T23:29:17.668Z,46.67
2022-11-06T23:31:46.970Z,48.15
2022-11-06T23:34:18.499Z,49.70
2022-11-06T23:36:46.444Z,50.13
2022-11-06T23:39:17.372Z,51.03
2022-11-06T23:41:47.371Z,50.92
2022-11-06T23:44:36.699Z,50.42
2022-11-06T23:47:06.305Z,50.55
2022-11-06T23:49:36.534Z,46.53
2022-11-06T23:52:07.738Z,46.55
2022-11-06T23:54:38.570Z,48.13
2022-11-06T23:57:10.660Z,47.58
2022-11-06T23:59:43.082Z,45.25
